Terminal Aerodrome Forecast
Issued by NWS Birmingham, AL

Home | Current Version | Previous Version | Text Only | Print | Product List | Glossary On
Versions: 1 2 3 4 5 6 7 8 9 10 11 12
750
FTUS44 KBMX 091234 AAA
TAFBHM
TAF AMD
KBHM 091234Z 0913/1012 28010KT P6SM OVC050
      TEMPO 0913/0915 -SHSN SCT035 OVC040
     FM091500 29013G22KT P6SM OVC050
     FM100000 30007KT P6SM OVC050
     FM100600 30005KT P6SM SCT050=

USA.gov is the U.S. government's official web portal to all federal, state and local government web resources and services.